createdAt,value
2019-05-10T00:00:14.521Z,99.90
2019-05-10T00:03:01.567Z,99.90
2019-05-10T00:05:48.177Z,99.90
2019-05-10T00:08:34.648Z,99.90
2019-05-10T00:11:05.346Z,99.90
2019-05-10T00:13:45.703Z,99.90
2019-05-10T00:16:14.333Z,99.90
2019-05-10T00:18:44.430Z,99.90
2019-05-10T00:21:13.206Z,99.90
2019-05-10T00:23:41.840Z,99.90
2019-05-10T00:26:10.558Z,99.90
2019-05-10T00:28:42.437Z,99.90
2019-05-10T00:31:13.420Z,99.90
2019-05-10T00:33:42.003Z,99.90
2019-05-10T00:36:10.593Z,99.90
2019-05-10T00:38:39.226Z,99.90
2019-05-10T00:41:07.837Z,99.90
2019-05-10T00:43:36.550Z,99.90
2019-05-10T00:46:05.213Z,99.90
2019-05-10T00:48:33.857Z,99.90
2019-05-10T00:51:02.454Z,99.90
2019-05-10T00:53:31.222Z,99.90
2019-05-10T00:55:59.809Z,99.90
2019-05-10T00:58:28.582Z,99.90
2019-05-10T01:01:00.255Z,99.90
2019-05-10T01:03:28.890Z,99.90
2019-05-10T01:05:57.548Z,99.90
2019-05-10T01:08:26.098Z,99.90
2019-05-10T01:10:54.733Z,99.90
2019-05-10T01:13:23.339Z,99.90
2019-05-10T01:15:52.011Z,99.90
2019-05-10T01:18:23.385Z,99.90
2019-05-10T01:20:52.082Z,99.90
2019-05-10T01:23:20.850Z,99.90
2019-05-10T01:25:49.344Z,99.90
2019-05-10T01:28:18.087Z,99.90
2019-05-10T01:30:49.475Z,99.90
2019-05-10T01:33:17.946Z,99.90
2019-05-10T01:35:46.577Z,99.90
2019-05-10T01:38:16.214Z,99.90
2019-05-10T01:40:46.077Z,99.90
2019-05-10T01:43:14.662Z,99.90
2019-05-10T01:45:43.429Z,99.90
2019-05-10T01:48:12.126Z,99.90
2019-05-10T01:50:40.686Z,99.90
2019-05-10T01:53:09.385Z,99.90
2019-05-10T01:55:50.943Z,99.90
2019-05-10T01:58:08.946Z,99.90
2019-05-10T02:00:38.267Z,99.90
2019-05-10T02:03:06.898Z,99.90
2019-05-10T02:05:35.460Z,99.90
2019-05-10T02:08:04.187Z,99.90
2019-05-10T02:10:32.816Z,99.90
2019-05-10T02:13:01.429Z,99.90
2019-05-10T02:15:30.201Z,99.90
2019-05-10T02:17:58.841Z,99.90
2019-05-10T02:20:27.466Z,99.90
2019-05-10T02:22:56.349Z,99.90
2019-05-10T02:25:25.055Z,99.90
2019-05-10T02:27:53.694Z,99.90
2019-05-10T02:30:24.498Z,99.90
2019-05-10T02:32:52.948Z,99.90
2019-05-10T02:35:21.671Z,99.90
2019-05-10T02:37:50.299Z,99.90
2019-05-10T02:40:19.361Z,99.90
2019-05-10T02:42:48.038Z,99.90
2019-05-10T02:45:18.040Z,99.90
2019-05-10T02:47:46.769Z,99.90
2019-05-10T02:50:15.460Z,99.90
2019-05-10T02:52:44.183Z,99.90
2019-05-10T02:55:12.850Z,99.90
2019-05-10T02:57:41.755Z,99.90
2019-05-10T03:00:11.149Z,99.90
2019-05-10T03:02:41.240Z,99.90
2019-05-10T03:05:10.597Z,99.90
2019-05-10T03:07:39.849Z,99.90
2019-05-10T03:10:11.375Z,99.90
2019-05-10T03:12:42.777Z,99.90
2019-05-10T03:15:12.557Z,99.90
2019-05-10T03:17:41.832Z,99.90
2019-05-10T03:20:11.719Z,99.90
2019-05-10T03:22:44.452Z,99.90
2019-05-10T03:25:14.388Z,99.90
2019-05-10T03:27:43.437Z,99.90
2019-05-10T03:30:12.301Z,99.90
2019-05-10T03:32:42.048Z,99.90
2019-05-10T03:35:11.495Z,99.90
2019-05-10T03:37:40.201Z,99.90
2019-05-10T03:40:09.370Z,99.90
2019-05-10T03:42:38.089Z,99.90
2019-05-10T03:45:07.474Z,99.90
2019-05-10T03:47:36.123Z,99.90
2019-05-10T03:50:06.500Z,99.90
2019-05-10T03:52:35.069Z,99.90
2019-05-10T03:55:04.524Z,99.90
2019-05-10T03:57:34.012Z,99.90
2019-05-10T04:00:02.679Z,99.90
2019-05-10T04:02:31.252Z,99.90
2019-05-10T04:04:59.830Z,99.90
2019-05-10T04:07:28.511Z,99.90
2019-05-10T04:09:57.131Z,99.90
2019-05-10T04:12:25.822Z,99.90
2019-05-10T04:14:56.962Z,99.90
2019-05-10T04:17:25.693Z,99.90
2019-05-10T04:19:54.943Z,99.90
2019-05-10T04:22:23.569Z,99.90
2019-05-10T04:24:52.227Z,99.90
2019-05-10T04:27:31.670Z,99.90
2019-05-10T04:29:51.196Z,99.90
2019-05-10T04:32:19.911Z,99.90
2019-05-10T04:34:48.567Z,99.90
2019-05-10T04:37:17.200Z,99.90
2019-05-10T04:39:45.766Z,99.90
2019-05-10T04:42:15.085Z,99.90
2019-05-10T04:44:43.661Z,99.90
2019-05-10T04:47:12.338Z,99.90
2019-05-10T04:49:40.914Z,99.90
2019-05-10T04:52:09.565Z,99.90
2019-05-10T04:54:38.155Z,99.90
2019-05-10T04:57:06.731Z,99.90
2019-05-10T04:59:38.442Z,99.90
2019-05-10T05:02:06.313Z,99.90
2019-05-10T05:04:35.149Z,99.90
2019-05-10T05:07:03.845Z,99.90
2019-05-10T05:09:33.142Z,99.90
2019-05-10T05:12:01.774Z,99.90
2019-05-10T05:14:30.517Z,99.90
2019-05-10T05:16:59.146Z,99.90
2019-05-10T05:19:27.690Z,99.90
2019-05-10T05:21:56.411Z,99.90
2019-05-10T05:24:25.086Z,99.90
2019-05-10T05:26:53.641Z,99.90
2019-05-10T05:29:22.246Z,99.90
2019-05-10T05:31:54.113Z,99.90
2019-05-10T05:34:21.209Z,99.90
2019-05-10T05:36:49.846Z,99.90
2019-05-10T05:39:18.471Z,99.90
2019-05-10T05:41:49.716Z,99.90
2019-05-10T05:44:20.375Z,99.90
2019-05-10T05:46:47.734Z,99.90
2019-05-10T05:49:16.461Z,99.90
2019-05-10T05:51:45.016Z,99.90
2019-05-10T05:54:15.101Z,99.90
2019-05-10T05:56:44.438Z,99.90
2019-05-10T05:59:17.520Z,99.90
2019-05-10T06:01:44.446Z,99.90
2019-05-10T06:04:13.166Z,99.90
2019-05-10T06:06:41.830Z,99.90
2019-05-10T06:09:10.522Z,99.90
2019-05-10T06:11:39.104Z,99.80
2019-05-10T06:14:10.649Z,99.80
2019-05-10T06:16:38.078Z,99.90
2019-05-10T06:19:06.822Z,99.70
2019-05-10T06:21:35.387Z,99.50
2019-05-10T06:24:07.371Z,99.60
2019-05-10T06:26:34.787Z,99.60
2019-05-10T06:29:04.852Z,99.90
2019-05-10T06:31:33.844Z,99.70
2019-05-10T06:34:03.149Z,99.70
2019-05-10T06:36:31.954Z,99.30
2019-05-10T06:39:00.694Z,99.40
2019-05-10T06:41:32.434Z,99.10
2019-05-10T06:43:59.621Z,98.00
2019-05-10T06:46:29.299Z,97.40
2019-05-10T06:49:07.321Z,97.50
2019-05-10T06:51:28.762Z,97.90
2019-05-10T06:53:57.358Z,98.40
2019-05-10T06:56:26.214Z,97.50
2019-05-10T06:58:55.025Z,97.40
2019-05-10T07:01:23.630Z,97.80
2019-05-10T07:03:53.722Z,98.20
2019-05-10T07:06:22.308Z,98.50
2019-05-10T07:08:51.758Z,97.70
2019-05-10T07:11:21.163Z,97.40
2019-05-10T07:13:52.809Z,97.60
2019-05-10T07:16:24.384Z,98.20
2019-05-10T07:18:54.801Z,97.90
2019-05-10T07:21:20.487Z,98.10
2019-05-10T07:23:48.983Z,98.10
2019-05-10T07:26:24.145Z,98.00
2019-05-10T07:28:51.733Z,98.10
2019-05-10T07:31:18.371Z,97.90
2019-05-10T07:33:46.925Z,98.50
2019-05-10T07:36:20.789Z,97.80
2019-05-10T07:38:45.979Z,98.00
2019-05-10T07:41:19.408Z,97.60
2019-05-10T07:43:48.123Z,97.60
2019-05-10T07:46:16.154Z,98.00
2019-05-10T07:48:46.995Z,97.90
2019-05-10T07:51:14.926Z,98.10
2019-05-10T07:53:43.487Z,98.00
2019-05-10T07:56:12.163Z,97.80
2019-05-10T07:58:43.278Z,98.00
2019-05-10T08:01:11.056Z,97.40
2019-05-10T08:03:48.252Z,97.30
2019-05-10T08:06:15.052Z,97.50
2019-05-10T08:08:41.814Z,97.20
2019-05-10T08:11:10.413Z,97.10
2019-05-10T08:13:39.457Z,97.20
2019-05-10T08:16:13.463Z,97.00
2019-05-10T08:18:39.823Z,97.40
2019-05-10T08:21:18.785Z,97.70
2019-05-10T08:23:40.862Z,97.50
2019-05-10T08:26:10.941Z,97.90
2019-05-10T08:28:42.214Z,97.50
2019-05-10T08:31:12.171Z,97.60
2019-05-10T08:33:44.329Z,97.80
2019-05-10T08:36:12.158Z,97.60
2019-05-10T08:38:47.152Z,98.10
2019-05-10T08:41:15.777Z,98.30
2019-05-10T08:43:43.030Z,98.30
2019-05-10T08:46:12.438Z,97.80
2019-05-10T08:48:46.189Z,97.60
2019-05-10T08:51:12.596Z,98.00
2019-05-10T08:53:42.281Z,97.50
2019-05-10T08:56:15.947Z,96.40
2019-05-10T08:58:42.271Z,96.60
2019-05-10T09:01:24.029Z,96.40
2019-05-10T09:03:41.928Z,96.10
2019-05-10T09:06:14.232Z,96.20
2019-05-10T09:08:43.163Z,96.10
2019-05-10T09:11:11.687Z,96.40
2019-05-10T09:13:45.661Z,96.30
2019-05-10T09:16:13.472Z,96.40
2019-05-10T09:18:46.747Z,96.40
2019-05-10T09:21:14.259Z,97.10
2019-05-10T09:23:42.754Z,96.20
2019-05-10T09:26:16.249Z,95.30
2019-05-10T09:28:42.226Z,95.50
2019-05-10T09:31:18.735Z,95.30
2019-05-10T09:33:49.139Z,95.30
2019-05-10T09:36:12.993Z,95.30
2019-05-10T09:38:43.448Z,95.50
2019-05-10T09:41:11.948Z,96.60
2019-05-10T09:43:48.334Z,93.70
2019-05-10T09:46:11.880Z,93.40
2019-05-10T09:48:44.623Z,92.90
2019-05-10T09:51:13.743Z,92.50
2019-05-10T09:53:41.777Z,92.50
2019-05-10T09:56:10.285Z,92.10
2019-05-10T09:58:39.037Z,91.90
2019-05-10T10:01:16.872Z,91.90
2019-05-10T10:03:43.199Z,91.10
2019-05-10T10:06:11.175Z,90.70
2019-05-10T10:08:43.048Z,90.70
2019-05-10T10:11:15.128Z,90.40
2019-05-10T10:13:43.253Z,90.60
2019-05-10T10:16:14.482Z,90.80
2019-05-10T10:18:39.538Z,90.50
2019-05-10T10:21:10.284Z,91.00
2019-05-10T10:23:38.360Z,91.40
2019-05-10T10:26:07.304Z,91.60
2019-05-10T10:28:37.302Z,92.20
2019-05-10T10:31:08.254Z,92.00
2019-05-10T10:33:37.942Z,91.80
2019-05-10T10:36:09.975Z,91.30
2019-05-10T10:38:45.287Z,92.30
2019-05-10T10:41:08.254Z,91.00
2019-05-10T10:43:37.244Z,90.80
2019-05-10T10:46:11.915Z,90.30
2019-05-10T10:48:36.985Z,89.90
2019-05-10T10:51:08.053Z,90.60
2019-05-10T10:53:36.269Z,88.70
2019-05-10T10:56:07.350Z,86.90
2019-05-10T10:58:36.889Z,89.00
2019-05-10T11:01:10.726Z,87.80
2019-05-10T11:03:35.895Z,88.00
2019-05-10T11:06:04.599Z,87.40
2019-05-10T11:08:33.400Z,87.50
2019-05-10T11:11:02.015Z,85.50
2019-05-10T11:13:44.222Z,81.60
2019-05-10T11:16:09.706Z,79.00
2019-05-10T11:18:31.757Z,80.10
2019-05-10T11:21:01.941Z,79.10
2019-05-10T11:23:34.218Z,81.40
2019-05-10T11:26:01.409Z,83.90
2019-05-10T11:28:38.810Z,84.90
2019-05-10T11:31:01.078Z,84.70
2019-05-10T11:33:33.387Z,85.80
2019-05-10T11:36:04.075Z,87.20
2019-05-10T11:38:31.802Z,87.30
2019-05-10T11:41:02.014Z,89.10
2019-05-10T11:43:31.502Z,90.00
2019-05-10T11:46:00.300Z,90.50
2019-05-10T11:48:36.920Z,90.60
2019-05-10T11:50:59.100Z,91.20
2019-05-10T11:53:27.738Z,91.70
2019-05-10T11:55:56.447Z,91.80
2019-05-10T11:58:25.039Z,91.70
2019-05-10T12:00:59.284Z,91.50
2019-05-10T12:03:24.176Z,90.10
2019-05-10T12:06:04.314Z,90.40
2019-05-10T12:08:23.114Z,89.00
2019-05-10T12:13:24.912Z,88.20
2019-05-10T12:15:54.194Z,83.70
2019-05-10T12:18:26.792Z,79.60
2019-05-10T12:21:04.139Z,79.20
2019-05-10T12:23:30.115Z,75.50
2019-05-10T12:26:31.062Z,89.80
2019-05-10T12:27:07.537Z,71.30
2019-05-10T12:28:28.780Z,67.90
2019-05-10T12:30:54.355Z,63.70
2019-05-10T12:33:27.310Z,65.40
2019-05-10T12:35:54.184Z,68.20
2019-05-10T12:38:29.152Z,63.00
2019-05-10T12:40:53.149Z,62.90
2019-05-10T12:43:22.725Z,70.00
2019-05-10T12:45:51.879Z,73.50
2019-05-10T12:48:23.145Z,75.60
2019-05-10T12:50:52.225Z,74.50
2019-05-10T12:53:21.547Z,72.80
2019-05-10T12:55:52.705Z,71.30
2019-05-10T12:58:21.441Z,68.70
2019-05-10T13:00:52.711Z,61.00
2019-05-10T13:03:25.490Z,64.20
2019-05-10T13:05:53.161Z,60.80
2019-05-10T13:08:23.266Z,63.00
2019-05-10T13:10:51.902Z,60.40
2019-05-10T13:13:23.685Z,61.10
2019-05-10T13:15:50.816Z,61.90
2019-05-10T13:18:23.259Z,63.90
2019-05-10T13:20:49.584Z,64.00
2019-05-10T13:23:18.541Z,64.00
2019-05-10T13:25:47.226Z,62.70
2019-05-10T13:28:15.775Z,55.60
2019-05-10T13:30:44.454Z,54.30
2019-05-10T13:33:27.715Z,55.70
2019-05-10T13:35:43.398Z,60.50
2019-05-10T13:38:11.962Z,58.70
2019-05-10T13:40:45.684Z,57.00
2019-05-10T13:43:10.832Z,54.30
2019-05-10T13:45:39.825Z,50.90
2019-05-10T13:48:08.491Z,48.90
2019-05-10T13:50:37.145Z,47.70
2019-05-10T13:53:19.757Z,45.80
2019-05-10T13:55:41.999Z,45.60
2019-05-10T13:58:10.649Z,48.00
2019-05-10T14:00:39.422Z,51.60
2019-05-10T14:03:11.501Z,53.40
2019-05-10T14:05:40.334Z,55.80
2019-05-10T14:08:08.674Z,58.50
2019-05-10T14:10:37.310Z,61.10
2019-05-10T14:13:06.033Z,69.10
2019-05-10T14:15:34.756Z,72.60
2019-05-10T14:18:03.397Z,75.10
2019-05-10T14:20:32.069Z,77.70
2019-05-10T14:23:00.734Z,78.70
2019-05-10T14:25:36.459Z,79.10
2019-05-10T14:27:59.664Z,81.30
2019-05-10T14:30:28.306Z,82.20
2019-05-10T14:32:56.854Z,83.50
2019-05-10T14:35:25.451Z,85.50
2019-05-10T14:37:54.209Z,87.00
2019-05-10T14:40:30.775Z,91.20
2019-05-10T14:42:53.205Z,93.20
2019-05-10T14:45:21.799Z,95.20
2019-05-10T14:47:50.796Z,96.10
2019-05-10T14:50:26.306Z,97.00
2019-05-10T14:52:50.525Z,97.90
2019-05-10T14:55:19.078Z,98.10
2019-05-10T14:57:47.774Z,99.80
2019-05-10T15:00:17.177Z,99.90
2019-05-10T15:02:45.743Z,99.90
2019-05-10T15:05:16.738Z,99.90
2019-05-10T15:07:44.674Z,99.90
2019-05-10T15:10:13.385Z,99.90
2019-05-10T15:12:42.094Z,99.90
2019-05-10T15:15:11.130Z,99.90
2019-05-10T15:17:39.689Z,99.90
2019-05-10T15:20:09.456Z,99.90
2019-05-10T15:22:38.083Z,99.90
2019-05-10T15:25:06.910Z,99.90
2019-05-10T15:27:35.565Z,99.90
2019-05-10T15:30:08.143Z,99.90
2019-05-10T15:32:37.027Z,99.90
2019-05-10T15:35:08.250Z,99.90
2019-05-10T15:37:40.780Z,99.90
2019-05-10T15:40:07.954Z,99.90
2019-05-10T15:42:38.477Z,99.90
2019-05-10T15:45:11.995Z,99.90
2019-05-10T15:47:50.888Z,99.90
2019-05-10T15:50:09.443Z,99.90
2019-05-10T15:52:39.737Z,99.90
2019-05-10T15:55:09.432Z,99.90
2019-05-10T15:57:38.091Z,99.90
2019-05-10T16:00:10.322Z,99.90
2019-05-10T16:02:38.939Z,99.90
2019-05-10T16:05:24.050Z,99.90
2019-05-10T16:07:40.882Z,99.90
2019-05-10T16:10:09.705Z,99.90
2019-05-10T16:12:42.943Z,99.90
2019-05-10T16:15:13.906Z,99.90
2019-05-10T16:17:40.169Z,99.90
2019-05-10T16:20:09.429Z,99.90
2019-05-10T16:22:38.119Z,99.90
2019-05-10T16:25:07.866Z,99.90
2019-05-10T16:27:40.437Z,99.90
2019-05-10T16:30:12.092Z,99.90
2019-05-10T16:32:38.225Z,99.90
2019-05-10T16:35:12.838Z,99.90
2019-05-10T16:37:37.788Z,99.90
2019-05-10T16:40:08.315Z,99.90
2019-05-10T16:42:37.006Z,99.90
2019-05-10T16:45:06.140Z,99.90
2019-05-10T16:47:34.903Z,99.90
2019-05-10T16:50:05.138Z,99.90
2019-05-10T16:52:33.622Z,99.90
2019-05-10T16:55:03.677Z,99.90
2019-05-10T16:57:37.491Z,99.90
2019-05-10T17:00:08.202Z,99.90
2019-05-10T17:02:36.661Z,99.90
2019-05-10T17:05:09.616Z,99.90
2019-05-10T17:07:37.940Z,99.90
2019-05-10T17:10:07.634Z,99.90
2019-05-10T17:12:36.290Z,99.90
2019-05-10T17:15:06.483Z,99.90
2019-05-10T17:17:37.322Z,99.90
2019-05-10T17:20:14.269Z,99.90
2019-05-10T17:22:40.159Z,99.90
2019-05-10T17:25:10.431Z,99.90
2019-05-10T17:27:39.073Z,99.90
2019-05-10T17:30:08.217Z,99.90
2019-05-10T17:32:36.822Z,99.90
2019-05-10T17:35:08.424Z,99.90
2019-05-10T17:37:37.557Z,99.90
2019-05-10T17:40:10.325Z,99.90
2019-05-10T17:42:41.217Z,99.90
2019-05-10T17:45:11.214Z,99.90
2019-05-10T17:47:39.968Z,99.90
2019-05-10T17:50:09.938Z,99.90
2019-05-10T17:52:38.497Z,99.90
2019-05-10T17:55:11.061Z,99.90
2019-05-10T17:57:39.038Z,99.90
2019-05-10T18:00:09.234Z,99.90
2019-05-10T18:02:37.955Z,99.90
2019-05-10T18:05:08.250Z,99.90
2019-05-10T18:07:37.253Z,99.90
2019-05-10T18:10:06.519Z,99.90
2019-05-10T18:12:35.259Z,99.90
2019-05-10T18:15:11.522Z,99.90
2019-05-10T18:17:40.249Z,99.90
2019-05-10T18:20:09.381Z,99.90
2019-05-10T18:22:43.260Z,99.90
2019-05-10T18:25:19.525Z,99.90
2019-05-10T18:27:38.637Z,99.90
2019-05-10T18:30:07.955Z,99.90
2019-05-10T18:32:37.207Z,99.90
2019-05-10T18:35:14.261Z,99.90
2019-05-10T18:37:38.254Z,99.90
2019-05-10T18:40:08.075Z,99.90
2019-05-10T18:42:36.761Z,99.90
2019-05-10T18:45:07.327Z,99.90
2019-05-10T18:47:35.905Z,99.90
2019-05-10T18:50:05.427Z,99.90
2019-05-10T18:52:34.108Z,99.90
2019-05-10T18:55:02.840Z,99.90
2019-05-10T18:57:31.386Z,99.90
2019-05-10T18:59:59.887Z,99.90
2019-05-10T19:02:28.438Z,99.90
2019-05-10T19:04:57.194Z,99.90
2019-05-10T19:07:25.889Z,99.90
2019-05-10T19:09:54.524Z,99.90
2019-05-10T19:12:23.807Z,99.90
2019-05-10T19:14:53.054Z,99.90
2019-05-10T19:17:21.621Z,99.90
2019-05-10T19:19:50.413Z,99.90
2019-05-10T19:22:19.013Z,99.90
2019-05-10T19:24:47.523Z,99.90
2019-05-10T19:27:16.190Z,99.90
2019-05-10T19:29:46.124Z,99.90
2019-05-10T19:32:18.060Z,99.90
2019-05-10T19:34:48.322Z,99.90
2019-05-10T19:37:27.914Z,99.90
2019-05-10T19:39:45.996Z,99.90
2019-05-10T19:42:14.730Z,99.90
2019-05-10T19:44:43.361Z,99.90
2019-05-10T19:47:17.549Z,99.90
2019-05-10T19:49:45.738Z,99.90
2019-05-10T19:52:13.466Z,99.90
2019-05-10T19:54:42.038Z,99.90
2019-05-10T19:57:16.403Z,99.90
2019-05-10T19:59:44.086Z,99.90
2019-05-10T20:02:11.536Z,99.90
2019-05-10T20:04:40.255Z,99.90
2019-05-10T20:07:08.849Z,99.90
2019-05-10T20:09:37.337Z,99.90
2019-05-10T20:12:06.054Z,99.90
2019-05-10T20:14:34.633Z,99.90
2019-05-10T20:17:03.251Z,99.90
2019-05-10T20:19:32.335Z,99.90
2019-05-10T20:22:00.910Z,99.90
2019-05-10T20:24:29.554Z,99.90
2019-05-10T20:26:58.158Z,99.90
2019-05-10T20:29:26.795Z,99.90
2019-05-10T20:31:55.494Z,99.90
2019-05-10T20:34:24.482Z,99.90
2019-05-10T20:36:53.192Z,99.90
2019-05-10T20:39:21.906Z,99.90
2019-05-10T20:41:50.473Z,99.90
2019-05-10T20:44:19.238Z,99.90
2019-05-10T20:46:47.794Z,99.90
2019-05-10T20:49:16.446Z,99.90
2019-05-10T20:51:44.926Z,99.90
2019-05-10T20:54:13.540Z,99.90
2019-05-10T20:56:42.159Z,99.90
2019-05-10T20:59:10.792Z,99.90
2019-05-10T21:01:39.366Z,99.90
2019-05-10T21:04:07.858Z,99.90
2019-05-10T21:06:36.425Z,99.90
2019-05-10T21:09:06.555Z,99.90
2019-05-10T21:11:35.127Z,99.90
2019-05-10T21:14:03.845Z,99.90
2019-05-10T21:16:32.484Z,99.90
2019-05-10T21:19:01.088Z,99.90
2019-05-10T21:21:30.217Z,99.90
2019-05-10T21:23:58.887Z,99.90
2019-05-10T21:26:27.589Z,99.90
2019-05-10T21:28:57.336Z,99.90
2019-05-10T21:31:25.966Z,99.90
2019-05-10T21:34:08.535Z,99.90
2019-05-10T21:36:24.978Z,99.90
2019-05-10T21:38:53.618Z,99.90
2019-05-10T21:41:22.360Z,99.90
2019-05-10T21:43:51.110Z,99.90
2019-05-10T21:46:20.770Z,99.90
2019-05-10T21:48:49.411Z,99.90
2019-05-10T21:51:18.029Z,99.90
2019-05-10T21:53:46.657Z,99.90
2019-05-10T21:56:36.203Z,99.90
2019-05-10T21:59:26.009Z,99.90
2019-05-10T22:01:54.675Z,99.90
2019-05-10T22:04:23.273Z,99.90
2019-05-10T22:06:51.971Z,99.90
2019-05-10T22:09:20.738Z,99.90
2019-05-10T22:11:49.397Z,99.90
2019-05-10T22:14:18.032Z,99.90
2019-05-10T22:16:46.706Z,99.90
2019-05-10T22:19:15.449Z,99.90
2019-05-10T22:21:44.045Z,99.90
2019-05-10T22:24:12.725Z,99.90
2019-05-10T22:26:41.351Z,99.90
2019-05-10T22:29:09.901Z,99.90
2019-05-10T22:31:38.469Z,99.90
2019-05-10T22:34:07.206Z,99.90
2019-05-10T22:36:35.820Z,99.90
2019-05-10T22:39:07.663Z,99.90
2019-05-10T22:41:35.504Z,99.90
2019-05-10T22:44:04.326Z,99.90
2019-05-10T22:46:32.878Z,99.90
2019-05-10T22:49:01.572Z,99.90
2019-05-10T22:51:30.255Z,99.90
2019-05-10T22:54:00.243Z,99.90
2019-05-10T22:56:29.063Z,99.90
2019-05-10T22:58:57.621Z,99.90
2019-05-10T23:01:26.186Z,99.90
2019-05-10T23:03:54.852Z,99.90
2019-05-10T23:06:23.383Z,99.90
2019-05-10T23:08:51.998Z,99.90
2019-05-10T23:11:20.730Z,99.90
2019-05-10T23:13:49.238Z,99.90
2019-05-10T23:16:18.190Z,99.90
2019-05-10T23:18:46.851Z,99.90
2019-05-10T23:21:15.415Z,99.90
2019-05-10T23:23:44.116Z,99.90
2019-05-10T23:26:12.866Z,99.90
2019-05-10T23:28:41.419Z,99.90
2019-05-10T23:31:10.066Z,99.90
2019-05-10T23:33:38.740Z,99.90
2019-05-10T23:36:07.305Z,99.90
2019-05-10T23:38:35.985Z,99.90
2019-05-10T23:41:04.624Z,99.90
2019-05-10T23:43:33.175Z,99.90
2019-05-10T23:46:01.779Z,99.90
2019-05-10T23:48:30.506Z,99.90
2019-05-10T23:51:01.930Z,99.90
2019-05-10T23:53:30.570Z,99.90
2019-05-10T23:55:59.205Z,99.90
2019-05-10T23:58:27.852Z,99.90
